createdAt,value
2019-06-07T00:00:38.654Z,1008.45
2019-06-07T00:01:23.322Z,1008.39
2019-06-07T00:02:22.312Z,1008.42
2019-06-07T00:03:29.733Z,1008.42
2019-06-07T00:04:23.284Z,1008.39
2019-06-07T00:05:22.333Z,1008.38
2019-06-07T00:06:25.637Z,1008.38
2019-06-07T00:07:22.264Z,1008.39
2019-06-07T00:08:28.069Z,1008.35
2019-06-07T00:09:23.232Z,1008.42
2019-06-07T00:10:35.927Z,1008.39
2019-06-07T00:11:23.211Z,1008.41
2019-06-07T00:12:22.201Z,1008.42
2019-06-07T00:13:22.205Z,1008.45
2019-06-07T00:14:22.175Z,1008.44
2019-06-07T00:15:28.597Z,1008.41
2019-06-07T00:16:23.611Z,1008.41
2019-06-07T00:17:22.144Z,1008.39
2019-06-07T00:18:25.917Z,1008.40
2019-06-07T00:19:22.119Z,1008.39
2019-06-07T00:20:23.666Z,1008.38
2019-06-07T00:22:12.220Z,1008.40
2019-06-07T00:22:32.202Z,1008.36
2019-06-07T00:23:23.166Z,1008.38
2019-06-07T00:24:22.297Z,1008.35
2019-06-07T00:25:24.462Z,1008.33
2019-06-07T00:26:22.128Z,1008.28
2019-06-07T00:27:22.642Z,1008.27
2019-06-07T00:28:22.016Z,1008.27
2019-06-07T00:29:22.227Z,1008.27
2019-06-07T00:30:50.700Z,1008.24
2019-06-07T00:31:24.755Z,1008.21
2019-06-07T00:32:22.393Z,1008.20
2019-06-07T00:33:24.568Z,1008.20
2019-06-07T00:34:23.170Z,1008.18
2019-06-07T00:35:22.530Z,1008.19
2019-06-07T00:36:23.235Z,1008.21
2019-06-07T00:37:25.210Z,1008.18
2019-06-07T00:38:22.146Z,1008.19
2019-06-07T00:39:25.241Z,1008.24
2019-06-07T00:40:31.334Z,1008.25
2019-06-07T00:41:22.898Z,1008.22
2019-06-07T00:42:24.223Z,1008.18
2019-06-07T00:43:27.917Z,1008.20
2019-06-07T00:44:23.513Z,1008.20
2019-06-07T00:45:24.489Z,1008.15
2019-06-07T00:46:25.283Z,1008.15
2019-06-07T00:47:25.001Z,1008.14
2019-06-07T00:48:31.325Z,1008.15
2019-06-07T00:49:39.965Z,1008.15
2019-06-07T00:50:24.324Z,1008.12
2019-06-07T00:51:23.912Z,1008.11
2019-06-07T00:53:12.854Z,1008.10
2019-06-07T00:53:31.525Z,1008.09
2019-06-07T00:54:24.824Z,1008.10
2019-06-07T00:55:27.121Z,1008.11
2019-06-07T00:56:23.545Z,1008.13
2019-06-07T00:57:24.140Z,1008.12
2019-06-07T00:58:27.169Z,1008.15
2019-06-07T00:59:28.825Z,1008.18
2019-06-07T01:00:25.558Z,1008.18
2019-06-07T01:01:23.341Z,1008.20
2019-06-07T01:02:25.930Z,1008.19
2019-06-07T01:03:25.685Z,1008.20
2019-06-07T01:04:23.591Z,1008.20
2019-06-07T01:05:28.149Z,1008.16
2019-06-07T01:06:23.473Z,1008.17
2019-06-07T01:07:22.473Z,1008.15
2019-06-07T01:08:25.751Z,1008.16
2019-06-07T01:09:25.295Z,1008.14
2019-06-07T01:10:46.990Z,1008.15
2019-06-07T01:11:25.728Z,1008.14
2019-06-07T01:12:23.871Z,1008.06
2019-06-07T01:13:24.142Z,1008.06
2019-06-07T01:14:24.524Z,1008.01
2019-06-07T01:15:27.577Z,1008.05
2019-06-07T01:16:24.328Z,1008.01
2019-06-07T01:17:33.062Z,1008.02
2019-06-07T01:18:43.418Z,1007.98
2019-06-07T01:19:26.442Z,1007.96
2019-06-07T01:20:24.363Z,1007.96
2019-06-07T01:21:24.819Z,1007.95
2019-06-07T01:22:23.576Z,1007.95
2019-06-07T01:23:59.457Z,1007.92
2019-06-07T01:24:25.420Z,1007.93
2019-06-07T01:25:23.824Z,1007.92
2019-06-07T01:26:23.774Z,1007.89
2019-06-07T01:27:25.155Z,1007.90
2019-06-07T01:28:24.277Z,1007.90
2019-06-07T01:29:24.993Z,1007.88
2019-06-07T01:30:24.173Z,1007.83
2019-06-07T01:31:24.426Z,1007.87
2019-06-07T01:32:24.656Z,1007.84
2019-06-07T01:33:23.505Z,1007.82
2019-06-07T01:34:25.686Z,1007.79
2019-06-07T01:35:22.092Z,1007.80
2019-06-07T01:36:22.354Z,1007.82
2019-06-07T01:37:24.896Z,1007.86
2019-06-07T01:38:24.974Z,1007.82
2019-06-07T01:39:23.912Z,1007.80
2019-06-07T01:40:27.801Z,1007.76
2019-06-07T01:41:25.345Z,1007.79
2019-06-07T01:42:24.578Z,1007.76
2019-06-07T01:43:26.111Z,1007.77
2019-06-07T01:44:24.815Z,1007.77
2019-06-07T01:45:23.661Z,1007.79
2019-06-07T01:46:23.395Z,1007.79
2019-06-07T01:47:25.606Z,1007.80
2019-06-07T01:48:25.389Z,1007.77
2019-06-07T01:49:22.805Z,1007.78
2019-06-07T01:50:23.349Z,1007.81
2019-06-07T01:51:21.916Z,1007.77
2019-06-07T01:52:23.516Z,1007.78
2019-06-07T01:53:23.671Z,1007.81
2019-06-07T01:55:24.988Z,1007.77
2019-06-07T01:56:24.502Z,1007.72
2019-06-07T01:57:38.288Z,1007.70
2019-06-07T01:58:22.846Z,1007.64
2019-06-07T01:59:21.953Z,1007.63
2019-06-07T02:00:22.027Z,1007.57
2019-06-07T02:01:21.708Z,1007.58
2019-06-07T02:02:22.841Z,1007.51
2019-06-07T02:03:22.344Z,1007.52
2019-06-07T02:04:23.401Z,1007.51
2019-06-07T02:05:22.893Z,1007.53
2019-06-07T02:06:21.695Z,1007.56
2019-06-07T02:07:25.753Z,1007.49
2019-06-07T02:08:23.871Z,1007.49
2019-06-07T02:09:21.035Z,1007.54
2019-06-07T02:10:25.759Z,1007.51
2019-06-07T02:11:23.493Z,1007.55
2019-06-07T02:12:28.176Z,1007.55
2019-06-07T02:13:23.599Z,1007.56
2019-06-07T02:14:24.197Z,1007.58
2019-06-07T02:15:22.773Z,1007.61
2019-06-07T02:16:21.827Z,1007.60
2019-06-07T02:17:23.998Z,1007.59
2019-06-07T02:18:22.967Z,1007.63
2019-06-07T02:19:22.001Z,1007.63
2019-06-07T02:20:22.990Z,1007.62
2019-06-07T02:21:23.267Z,1007.66
2019-06-07T02:23:24.022Z,1007.74
2019-06-07T02:24:24.851Z,1007.75
2019-06-07T02:25:41.923Z,1007.74
2019-06-07T02:26:22.956Z,1007.72
2019-06-07T02:27:20.835Z,1007.71
2019-06-07T02:28:30.617Z,1007.70
2019-06-07T02:29:22.915Z,1007.68
2019-06-07T02:30:40.328Z,1007.68
2019-06-07T02:31:24.051Z,1007.65
2019-06-07T02:32:21.766Z,1007.66
2019-06-07T02:33:25.820Z,1007.65
2019-06-07T02:34:21.657Z,1007.65
2019-06-07T02:35:25.649Z,1007.67
2019-06-07T02:36:25.672Z,1007.70
2019-06-07T02:37:21.688Z,1007.68
2019-06-07T02:38:23.108Z,1007.72
2019-06-07T02:39:24.016Z,1007.72
2019-06-07T02:40:22.010Z,1007.76
2019-06-07T02:41:22.933Z,1007.74
2019-06-07T02:42:26.140Z,1007.72
2019-06-07T02:43:22.164Z,1007.73
2019-06-07T02:44:20.494Z,1007.76
2019-06-07T02:45:20.483Z,1007.72
2019-06-07T02:46:28.132Z,1007.72
2019-06-07T02:47:22.745Z,1007.70
2019-06-07T02:48:20.474Z,1007.70
2019-06-07T02:49:20.458Z,1007.68
2019-06-07T02:50:20.423Z,1007.70
2019-06-07T02:51:20.410Z,1007.68
2019-06-07T02:52:20.474Z,1007.65
2019-06-07T02:53:20.395Z,1007.63
2019-06-07T02:54:20.424Z,1007.63
2019-06-07T02:55:20.370Z,1007.61
2019-06-07T02:56:39.108Z,1007.60
2019-06-07T02:57:21.344Z,1007.59
2019-06-07T02:58:20.344Z,1007.59
2019-06-07T02:59:42.132Z,1007.57
2019-06-07T03:00:47.498Z,1007.55
2019-06-07T03:01:21.304Z,1007.57
2019-06-07T03:02:20.294Z,1007.58
2019-06-07T03:03:22.159Z,1007.55
2019-06-07T03:04:20.292Z,1007.57
2019-06-07T03:05:20.257Z,1007.57
2019-06-07T03:06:20.245Z,1007.59
2019-06-07T03:07:20.239Z,1007.62
2019-06-07T03:08:20.223Z,1007.59
2019-06-07T03:09:20.241Z,1007.58
2019-06-07T03:10:20.226Z,1007.63
2019-06-07T03:11:20.195Z,1007.65
2019-06-07T03:12:20.193Z,1007.65
2019-06-07T03:13:20.173Z,1007.64
2019-06-07T03:14:20.185Z,1007.67
2019-06-07T03:15:32.603Z,1007.64
2019-06-07T03:16:21.145Z,1007.66
2019-06-07T03:17:20.129Z,1007.68
2019-06-07T03:18:20.120Z,1007.66
2019-06-07T03:19:20.125Z,1007.66
2019-06-07T03:20:20.092Z,1007.64
2019-06-07T03:21:20.078Z,1007.64
2019-06-07T03:22:20.065Z,1007.66
2019-06-07T03:23:20.077Z,1007.64
2019-06-07T03:24:20.070Z,1007.63
2019-06-07T03:25:20.042Z,1007.63
2019-06-07T03:26:20.025Z,1007.65
2019-06-07T03:27:44.033Z,1007.68
2019-06-07T03:28:21.000Z,1007.64
2019-06-07T03:29:20.171Z,1007.68
2019-06-07T03:30:38.972Z,1007.65
2019-06-07T03:31:20.974Z,1007.63
2019-06-07T03:32:19.977Z,1007.65
2019-06-07T03:33:19.952Z,1007.66
2019-06-07T03:34:19.972Z,1007.63
2019-06-07T03:35:20.093Z,1007.67
2019-06-07T03:36:25.445Z,1007.58
2019-06-07T03:37:20.899Z,1007.62
2019-06-07T03:38:19.888Z,1007.61
2019-06-07T03:39:19.934Z,1007.60
2019-06-07T03:40:19.893Z,1007.59
2019-06-07T03:41:19.858Z,1007.57
2019-06-07T03:42:19.844Z,1007.65
2019-06-07T03:43:19.847Z,1007.65
2019-06-07T03:44:19.826Z,1007.61
2019-06-07T03:45:19.886Z,1007.66
2019-06-07T03:46:19.799Z,1007.63
2019-06-07T03:47:19.791Z,1007.61
2019-06-07T03:48:19.778Z,1007.63
2019-06-07T03:49:19.768Z,1007.67
2019-06-07T03:50:19.784Z,1007.61
2019-06-07T03:51:25.334Z,1007.67
2019-06-07T03:52:20.730Z,1007.67
2019-06-07T03:53:19.725Z,1007.66
2019-06-07T03:54:19.713Z,1007.65
2019-06-07T03:55:19.699Z,1007.63
2019-06-07T03:56:19.732Z,1007.64
2019-06-07T03:57:19.680Z,1007.63
2019-06-07T03:58:47.901Z,1007.64
2019-06-07T03:59:20.658Z,1007.61
2019-06-07T04:00:19.641Z,1007.65
2019-06-07T04:01:19.659Z,1007.66
2019-06-07T04:02:19.619Z,1007.65
2019-06-07T04:03:33.391Z,1007.73
2019-06-07T04:04:20.599Z,1007.71
2019-06-07T04:05:19.627Z,1007.74
2019-06-07T04:06:19.576Z,1007.75
2019-06-07T04:07:19.567Z,1007.76
2019-06-07T04:08:19.563Z,1007.73
2019-06-07T04:09:19.548Z,1007.69
2019-06-07T04:10:19.606Z,1007.73
2019-06-07T04:11:19.550Z,1007.66
2019-06-07T04:12:19.511Z,1007.68
2019-06-07T04:13:19.501Z,1007.67
2019-06-07T04:14:19.484Z,1007.63
2019-06-07T04:15:19.475Z,1007.60
2019-06-07T04:16:19.488Z,1007.60
2019-06-07T04:17:20.415Z,1007.62
2019-06-07T04:18:19.442Z,1007.61
2019-06-07T04:19:19.452Z,1007.61
2019-06-07T04:20:19.424Z,1007.59
2019-06-07T04:21:19.432Z,1007.56
2019-06-07T04:22:19.396Z,1007.58
2019-06-07T04:23:30.014Z,1007.53
2019-06-07T04:24:20.596Z,1007.50
2019-06-07T04:25:19.362Z,1007.50
2019-06-07T04:26:19.375Z,1007.51
2019-06-07T04:27:19.338Z,1007.51
2019-06-07T04:28:19.334Z,1007.50
2019-06-07T04:30:02.056Z,1007.47
2019-06-07T04:30:20.346Z,1007.48
2019-06-07T04:31:19.333Z,1007.49
2019-06-07T04:32:19.297Z,1007.51
2019-06-07T04:33:19.278Z,1007.45
2019-06-07T04:34:19.267Z,1007.40
2019-06-07T04:35:19.250Z,1007.37
2019-06-07T04:36:37.372Z,1007.39
2019-06-07T04:37:20.249Z,1007.36
2019-06-07T04:38:19.217Z,1007.33
2019-06-07T04:39:19.406Z,1007.35
2019-06-07T04:40:19.210Z,1007.35
2019-06-07T04:41:19.186Z,1007.34
2019-06-07T04:42:19.256Z,1007.37
2019-06-07T04:43:19.233Z,1007.39
2019-06-07T04:44:19.154Z,1007.38
2019-06-07T04:45:33.829Z,1007.45
2019-06-07T04:46:20.127Z,1007.49
2019-06-07T04:47:19.150Z,1007.52
2019-06-07T04:48:19.132Z,1007.56
2019-06-07T04:49:19.097Z,1007.52
2019-06-07T04:50:19.090Z,1007.58
2019-06-07T04:51:19.088Z,1007.51
2019-06-07T04:52:19.092Z,1007.53
2019-06-07T04:53:19.051Z,1007.52
2019-06-07T04:54:19.107Z,1007.50
2019-06-07T04:55:19.032Z,1007.46
2019-06-07T04:56:19.015Z,1007.47
2019-06-07T04:57:19.041Z,1007.41
2019-06-07T04:58:19.003Z,1007.40
2019-06-07T05:00:01.141Z,1007.35
2019-06-07T05:00:48.503Z,1007.35
2019-06-07T05:01:27.335Z,1007.35
2019-06-07T05:02:19.972Z,1007.35
2019-06-07T05:03:18.941Z,1007.35
2019-06-07T05:04:18.926Z,1007.31
2019-06-07T05:05:18.924Z,1007.26
2019-06-07T05:06:18.922Z,1007.29
2019-06-07T05:07:18.973Z,1007.28
2019-06-07T05:08:27.909Z,1007.28
2019-06-07T05:09:19.872Z,1007.24
2019-06-07T05:10:18.874Z,1007.24
2019-06-07T05:11:18.857Z,1007.24
2019-06-07T05:12:18.890Z,1007.24
2019-06-07T05:13:18.838Z,1007.21
2019-06-07T05:14:18.823Z,1007.24
2019-06-07T05:15:18.810Z,1007.23
2019-06-07T05:16:18.793Z,1007.26
2019-06-07T05:17:18.815Z,1007.23
2019-06-07T05:18:18.772Z,1007.21
2019-06-07T05:19:18.761Z,1007.21
2019-06-07T05:20:18.755Z,1007.17
2019-06-07T05:21:18.748Z,1007.13
2019-06-07T05:22:18.758Z,1007.09
2019-06-07T05:24:00.305Z,1007.09
2019-06-07T05:24:19.702Z,1007.08
2019-06-07T05:25:18.701Z,1007.06
2019-06-07T05:26:18.680Z,1007.08
2019-06-07T05:27:18.695Z,1007.07
2019-06-07T05:28:18.686Z,1007.05
2019-06-07T05:29:18.650Z,1007.02
2019-06-07T05:30:57.798Z,1007.03
2019-06-07T05:31:19.635Z,1007.03
2019-06-07T05:32:18.622Z,1006.99
2019-06-07T05:33:18.634Z,1007.00
2019-06-07T05:34:18.590Z,1006.94
2019-06-07T05:35:18.629Z,1006.96
2019-06-07T05:36:18.568Z,1006.95
2019-06-07T05:37:18.601Z,1006.90
2019-06-07T05:38:18.577Z,1006.91
2019-06-07T05:39:18.536Z,1006.93
2019-06-07T05:40:18.531Z,1006.88
2019-06-07T05:41:18.518Z,1006.90
2019-06-07T05:42:18.508Z,1006.86
2019-06-07T05:43:18.530Z,1006.85
2019-06-07T05:44:18.481Z,1006.85
2019-06-07T05:45:18.466Z,1006.88
2019-06-07T05:46:18.462Z,1006.89
2019-06-07T05:47:18.458Z,1006.86
2019-06-07T05:48:18.460Z,1006.84
2019-06-07T05:49:18.423Z,1006.84
2019-06-07T05:50:39.153Z,1006.82
2019-06-07T05:51:19.400Z,1006.81
2019-06-07T05:52:18.406Z,1006.74
2019-06-07T05:53:18.435Z,1006.80
2019-06-07T05:54:18.366Z,1006.78
2019-06-07T05:55:18.355Z,1006.83
2019-06-07T05:56:18.372Z,1006.87
2019-06-07T05:57:18.332Z,1006.80
2019-06-07T05:58:18.631Z,1006.81
2019-06-07T05:59:18.346Z,1006.73
2019-06-07T06:00:18.300Z,1006.78
2019-06-07T06:02:23.262Z,1006.81
2019-06-07T06:03:19.292Z,1006.81
2019-06-07T06:04:18.279Z,1006.81
2019-06-07T06:05:33.911Z,1006.83
2019-06-07T06:06:19.535Z,1006.82
2019-06-07T06:07:18.224Z,1006.83
2019-06-07T06:08:18.240Z,1006.80
2019-06-07T06:09:18.236Z,1006.79
2019-06-07T06:10:18.196Z,1006.77
2019-06-07T06:11:18.179Z,1006.78
2019-06-07T06:12:34.001Z,1006.78
2019-06-07T06:13:19.155Z,1006.75
2019-06-07T06:14:18.169Z,1006.77
2019-06-07T06:15:18.138Z,1006.77
2019-06-07T06:16:18.124Z,1006.74
2019-06-07T06:17:18.108Z,1006.75
2019-06-07T06:18:18.127Z,1006.77
2019-06-07T06:19:18.115Z,1006.76
2019-06-07T06:20:18.074Z,1006.75
2019-06-07T06:21:20.181Z,1006.75
2019-06-07T06:22:18.051Z,1006.77
2019-06-07T06:23:18.053Z,1006.77
2019-06-07T06:24:18.054Z,1006.74
2019-06-07T06:25:34.439Z,1006.76
2019-06-07T06:26:19.012Z,1006.74
2019-06-07T06:28:02.160Z,1006.74
2019-06-07T06:28:18.988Z,1006.69
2019-06-07T06:29:18.016Z,1006.66
2019-06-07T06:30:17.962Z,1006.65
2019-06-07T06:31:17.953Z,1006.63
2019-06-07T06:33:33.254Z,1006.66
2019-06-07T06:34:18.990Z,1006.64
2019-06-07T06:35:17.913Z,1006.66
2019-06-07T06:36:18.203Z,1006.66
2019-06-07T06:37:17.887Z,1006.64
2019-06-07T06:38:17.988Z,1006.69
2019-06-07T06:39:17.903Z,1006.70
2019-06-07T06:40:17.908Z,1006.67
2019-06-07T06:41:17.933Z,1006.64
2019-06-07T06:42:17.839Z,1006.61
2019-06-07T06:43:17.816Z,1006.63
2019-06-07T06:44:17.973Z,1006.62
2019-06-07T06:45:17.803Z,1006.66
2019-06-07T06:46:37.422Z,1006.61
2019-06-07T06:47:18.782Z,1006.63
2019-06-07T06:48:17.770Z,1006.66
2019-06-07T06:49:17.795Z,1006.65
2019-06-07T06:50:17.743Z,1006.65
2019-06-07T06:51:17.733Z,1006.63
2019-06-07T06:52:17.721Z,1006.66
2019-06-07T06:53:17.710Z,1006.64
2019-06-07T06:54:39.008Z,1006.64
2019-06-07T06:55:18.718Z,1006.64
2019-06-07T06:56:17.847Z,1006.64
2019-06-07T06:57:20.178Z,1006.56
2019-06-07T06:58:17.648Z,1006.52
2019-06-07T07:00:18.662Z,1006.49
2019-06-07T07:01:17.628Z,1006.54
2019-06-07T07:02:17.613Z,1006.54
2019-06-07T07:04:18.589Z,1006.55
2019-06-07T07:05:17.613Z,1006.56
2019-06-07T07:06:25.793Z,1006.58
2019-06-07T07:07:18.546Z,1006.60
2019-06-07T07:08:17.542Z,1006.58
2019-06-07T07:09:17.531Z,1006.59
2019-06-07T07:10:17.550Z,1006.59
2019-06-07T07:11:17.505Z,1006.58
2019-06-07T07:12:17.491Z,1006.57
2019-06-07T07:13:17.491Z,1006.58
2019-06-07T07:14:17.483Z,1006.58
2019-06-07T07:15:17.492Z,1006.55
2019-06-07T07:16:17.454Z,1006.52
2019-06-07T07:17:17.463Z,1006.54
2019-06-07T07:18:17.424Z,1006.53
2019-06-07T07:19:17.416Z,1006.53
2019-06-07T07:20:17.425Z,1006.47
2019-06-07T07:21:17.396Z,1006.48
2019-06-07T07:22:17.390Z,1006.44
2019-06-07T07:23:17.525Z,1006.44
2019-06-07T07:24:21.550Z,1006.40
2019-06-07T07:25:17.369Z,1006.44
2019-06-07T07:26:17.357Z,1006.38
2019-06-07T07:27:17.327Z,1006.37
2019-06-07T07:28:17.321Z,1006.34
2019-06-07T07:29:17.314Z,1006.26
2019-06-07T07:30:36.250Z,1006.33
2019-06-07T07:31:18.320Z,1006.39
2019-06-07T07:32:17.274Z,1006.39
2019-06-07T07:33:17.270Z,1006.33
2019-06-07T07:34:34.699Z,1006.32
2019-06-07T07:35:18.246Z,1006.31
2019-06-07T07:36:37.606Z,1006.29
2019-06-07T07:37:18.215Z,1006.33
2019-06-07T07:38:17.204Z,1006.29
2019-06-07T07:39:17.375Z,1006.29
2019-06-07T07:41:18.198Z,1006.23
2019-06-07T07:42:21.204Z,1006.30
2019-06-07T07:43:17.148Z,1006.25
2019-06-07T07:44:17.146Z,1006.15
2019-06-07T07:45:17.170Z,1006.21
2019-06-07T07:46:29.263Z,1006.15
2019-06-07T07:47:18.104Z,1006.10
2019-06-07T07:48:18.500Z,1006.06
2019-06-07T07:49:17.082Z,1006.00
2019-06-07T07:50:17.083Z,1006.01
2019-06-07T07:51:17.216Z,1006.03
2019-06-07T07:52:17.051Z,1005.96
2019-06-07T07:53:17.043Z,1006.08
2019-06-07T07:54:17.057Z,1006.07
2019-06-07T07:55:17.074Z,1006.11
2019-06-07T07:56:17.039Z,1006.02
2019-06-07T07:57:17.027Z,1006.04
2019-06-07T07:58:17.061Z,1006.00
2019-06-07T07:59:16.973Z,1006.03
2019-06-07T08:00:49.605Z,1006.04
2019-06-07T08:01:17.945Z,1006.02
2019-06-07T08:02:16.956Z,1006.03
2019-06-07T08:03:16.921Z,1006.06
2019-06-07T08:04:16.918Z,1005.98
2019-06-07T08:05:28.870Z,1005.90
2019-06-07T08:06:17.896Z,1005.88
2019-06-07T08:07:16.902Z,1005.87
2019-06-07T08:08:16.868Z,1005.79
2019-06-07T08:09:16.856Z,1005.90
2019-06-07T08:10:16.847Z,1005.79
2019-06-07T08:11:16.846Z,1005.70
2019-06-07T08:12:16.850Z,1005.77
2019-06-07T08:13:25.418Z,1005.79
2019-06-07T08:14:17.801Z,1005.75
2019-06-07T08:15:16.794Z,1005.77
2019-06-07T08:16:18.787Z,1005.81
2019-06-07T08:17:16.803Z,1005.64
2019-06-07T08:18:16.760Z,1005.63
2019-06-07T08:19:16.748Z,1005.68
2019-06-07T08:20:16.751Z,1005.61
2019-06-07T08:21:25.896Z,1005.70
2019-06-07T08:22:17.734Z,1005.73
2019-06-07T08:23:16.713Z,1005.71
2019-06-07T08:24:16.690Z,1005.74
2019-06-07T08:25:16.688Z,1005.77
2019-06-07T08:26:16.686Z,1005.70
2019-06-07T08:27:25.792Z,1005.68
2019-06-07T08:28:17.646Z,1005.60
2019-06-07T08:29:16.638Z,1005.65
2019-06-07T08:30:47.213Z,1005.59
2019-06-07T08:31:17.611Z,1005.61
2019-06-07T08:32:16.628Z,1005.70
2019-06-07T08:33:25.933Z,1005.61
2019-06-07T08:34:17.579Z,1005.58
2019-06-07T08:36:02.612Z,1005.60
2019-06-07T08:36:22.051Z,1005.58
2019-06-07T08:37:17.582Z,1005.52
2019-06-07T08:38:26.955Z,1005.58
2019-06-07T08:39:17.556Z,1005.53
2019-06-07T08:40:16.514Z,1005.42
2019-06-07T08:41:16.507Z,1005.43
2019-06-07T08:42:22.041Z,1005.43
2019-06-07T08:43:20.555Z,1005.39
2019-06-07T08:44:23.795Z,1005.41
2019-06-07T08:45:17.477Z,1005.30
2019-06-07T08:46:16.453Z,1005.35
2019-06-07T08:47:20.615Z,1005.32
2019-06-07T08:48:27.368Z,1005.25
2019-06-07T08:49:17.414Z,1005.33
2019-06-07T08:50:16.405Z,1005.38
2019-06-07T08:51:16.388Z,1005.22
2019-06-07T08:52:16.388Z,1005.27
2019-06-07T08:53:16.395Z,1005.25
2019-06-07T08:54:22.699Z,1005.22
2019-06-07T08:55:17.348Z,1005.15
2019-06-07T08:56:16.338Z,1005.22
2019-06-07T08:57:21.323Z,1005.20
2019-06-07T08:58:17.350Z,1005.14
2019-06-07T08:59:16.297Z,1005.10
2019-06-07T09:00:43.018Z,1005.11
2019-06-07T09:01:17.276Z,1005.13
2019-06-07T09:02:23.794Z,1005.02
2019-06-07T09:03:17.283Z,1005.14
2019-06-07T09:04:16.283Z,1005.02
2019-06-07T09:05:16.235Z,1004.94
2019-06-07T09:07:01.036Z,1005.02
2019-06-07T09:07:19.907Z,1005.10
2019-06-07T09:08:29.010Z,1004.90
2019-06-07T09:09:17.187Z,1004.91
2019-06-07T09:10:16.182Z,1004.90
2019-06-07T09:11:16.165Z,1004.83
2019-06-07T09:12:16.159Z,1004.90
2019-06-07T09:13:16.152Z,1004.89
2019-06-07T09:14:16.184Z,1004.88
2019-06-07T09:15:23.612Z,1004.84
2019-06-07T09:16:17.110Z,1004.90
2019-06-07T09:17:16.101Z,1004.79
2019-06-07T09:18:42.328Z,1004.79
2019-06-07T09:19:17.103Z,1004.80
2019-06-07T09:20:35.643Z,1004.73
2019-06-07T09:21:17.051Z,1004.76
2019-06-07T09:22:16.044Z,1004.76
2019-06-07T09:23:17.572Z,1004.68
2019-06-07T09:24:16.053Z,1004.68
2019-06-07T09:25:21.005Z,1004.66
2019-06-07T09:26:18.934Z,1004.61
2019-06-07T09:27:15.993Z,1004.61
2019-06-07T09:28:20.043Z,1004.57
2019-06-07T09:29:15.999Z,1004.59
2019-06-07T09:30:18.870Z,1004.64
2019-06-07T09:31:15.976Z,1004.60
2019-06-07T09:32:18.522Z,1004.57
2019-06-07T09:33:15.918Z,1004.64
2019-06-07T09:34:16.008Z,1004.53
2019-06-07T09:35:17.432Z,1004.57
2019-06-07T09:36:15.897Z,1004.56
2019-06-07T09:38:03.127Z,1004.51
2019-06-07T09:38:25.391Z,1004.52
2019-06-07T09:39:16.897Z,1004.47
2019-06-07T09:40:27.048Z,1004.49
2019-06-07T09:41:16.830Z,1004.43
2019-06-07T09:42:15.816Z,1004.41
2019-06-07T09:44:00.148Z,1004.38
2019-06-07T09:44:24.922Z,1004.39
2019-06-07T09:45:16.826Z,1004.42
2019-06-07T09:46:16.761Z,1004.39
2019-06-07T09:47:31.052Z,1004.36
2019-06-07T09:49:08.570Z,1004.32
2019-06-07T09:49:30.546Z,1004.32
2019-06-07T09:50:16.768Z,1004.36
2019-06-07T09:51:20.046Z,1004.35
2019-06-07T09:52:15.729Z,1004.30
2019-06-07T09:53:22.673Z,1004.26
2019-06-07T09:55:02.448Z,1004.19
2019-06-07T09:55:24.481Z,1004.27
2019-06-07T09:56:16.660Z,1004.19
2019-06-07T09:57:17.591Z,1004.23
2019-06-07T09:58:50.392Z,1004.19
2019-06-07T09:59:16.791Z,1004.11
2019-06-07T10:00:38.740Z,1004.14
2019-06-07T10:01:16.603Z,1004.18
2019-06-07T10:02:15.597Z,1004.14
2019-06-07T10:03:21.143Z,1004.11
2019-06-07T10:04:30.661Z,1004.01
2019-06-07T10:05:16.632Z,1004.10
2019-06-07T10:06:15.554Z,1004.17
2019-06-07T10:07:30.670Z,1004.08
2019-06-07T10:09:26.340Z,1004.11
2019-06-07T10:11:16.524Z,1003.99
2019-06-07T10:12:15.488Z,1004.02
2019-06-07T10:13:15.468Z,1003.98
2019-06-07T10:14:15.455Z,1003.93
2019-06-07T10:15:15.446Z,1003.95
2019-06-07T10:16:15.455Z,1003.88
2019-06-07T10:17:15.420Z,1003.84
2019-06-07T10:18:15.417Z,1003.81
2019-06-07T10:19:15.403Z,1003.84
2019-06-07T10:20:15.386Z,1003.86
2019-06-07T10:21:15.724Z,1003.87
2019-06-07T10:22:15.367Z,1003.92
2019-06-07T10:23:15.354Z,1003.87
2019-06-07T10:24:15.342Z,1003.89
2019-06-07T10:25:15.329Z,1003.88
2019-06-07T10:26:15.370Z,1003.97
2019-06-07T10:27:15.318Z,1003.88
2019-06-07T10:28:15.302Z,1003.93
2019-06-07T10:29:15.295Z,1003.94
2019-06-07T10:30:15.271Z,1003.85
2019-06-07T10:31:15.313Z,1003.84
2019-06-07T10:32:15.254Z,1003.83
2019-06-07T10:33:15.243Z,1003.94
2019-06-07T10:34:15.232Z,1003.94
2019-06-07T10:35:16.547Z,1003.94
2019-06-07T10:36:15.251Z,1003.86
2019-06-07T10:37:15.867Z,1003.76
2019-06-07T10:38:15.183Z,1003.81
2019-06-07T10:39:15.176Z,1003.75
2019-06-07T10:40:15.182Z,1003.73
2019-06-07T10:41:15.173Z,1003.70
2019-06-07T10:42:15.182Z,1003.67
2019-06-07T10:43:15.127Z,1003.70
2019-06-07T10:44:15.114Z,1003.76
2019-06-07T10:45:15.105Z,1003.68
2019-06-07T10:46:15.106Z,1003.71
2019-06-07T10:47:15.122Z,1003.67
2019-06-07T10:48:15.143Z,1003.69
2019-06-07T10:49:15.057Z,1003.62
2019-06-07T10:50:15.058Z,1003.59
2019-06-07T10:51:15.133Z,1003.61
2019-06-07T10:52:15.065Z,1003.60
2019-06-07T10:53:15.021Z,1003.66
2019-06-07T10:54:24.661Z,1003.52
2019-06-07T10:55:15.991Z,1003.55
2019-06-07T10:56:14.984Z,1003.55
2019-06-07T10:57:16.183Z,1003.57
2019-06-07T10:58:14.958Z,1003.50
2019-06-07T10:59:14.951Z,1003.45
2019-06-07T11:00:14.933Z,1003.62
2019-06-07T11:01:14.929Z,1003.54
2019-06-07T11:02:15.146Z,1003.49
2019-06-07T11:03:14.897Z,1003.53
2019-06-07T11:04:14.983Z,1003.55
2019-06-07T11:05:14.880Z,1003.51
2019-06-07T11:06:14.868Z,1003.56
2019-06-07T11:07:14.889Z,1003.56
2019-06-07T11:08:15.126Z,1003.55
2019-06-07T11:09:14.850Z,1003.49
2019-06-07T11:10:19.471Z,1003.49
2019-06-07T11:11:15.818Z,1003.35
2019-06-07T11:12:15.364Z,1003.34
2019-06-07T11:13:14.836Z,1003.32
2019-06-07T11:14:14.857Z,1003.30
2019-06-07T11:15:15.047Z,1003.29
2019-06-07T11:16:15.696Z,1003.28
2019-06-07T11:17:15.720Z,1003.35
2019-06-07T11:18:14.769Z,1003.27
2019-06-07T11:19:17.767Z,1003.24
2019-06-07T11:20:14.722Z,1003.22
2019-06-07T11:21:14.701Z,1003.17
2019-06-07T11:22:14.692Z,1003.26
2019-06-07T11:23:14.711Z,1003.18
2019-06-07T11:24:18.262Z,1003.17
2019-06-07T11:25:15.669Z,1003.13
2019-06-07T11:26:14.646Z,1003.10
2019-06-07T11:27:16.394Z,1003.14
2019-06-07T11:28:14.842Z,1003.06
2019-06-07T11:29:15.126Z,1003.07
2019-06-07T11:30:14.671Z,1003.07
2019-06-07T11:31:15.066Z,1003.04
2019-06-07T11:32:14.709Z,1003.03
2019-06-07T11:33:16.390Z,1003.01
2019-06-07T11:34:14.699Z,1003.00
2019-06-07T11:35:15.515Z,1003.01
2019-06-07T11:36:15.289Z,1003.04
2019-06-07T11:37:16.191Z,1002.99
2019-06-07T11:38:14.722Z,1002.93
2019-06-07T11:39:15.137Z,1002.93
2019-06-07T11:40:32.060Z,1002.97
2019-06-07T11:41:15.946Z,1002.88
2019-06-07T11:42:14.473Z,1002.92
2019-06-07T11:43:14.990Z,1002.91
2019-06-07T11:44:15.025Z,1002.93
2019-06-07T11:45:15.444Z,1002.82
2019-06-07T11:46:15.155Z,1002.84
2019-06-07T11:47:14.622Z,1002.82
2019-06-07T11:48:15.496Z,1002.82
2019-06-07T11:49:19.887Z,1002.86
2019-06-07T11:50:15.714Z,1002.86
2019-06-07T11:51:14.931Z,1002.79
2019-06-07T11:52:15.652Z,1002.88
2019-06-07T11:53:14.673Z,1002.85
2019-06-07T11:54:16.062Z,1002.84
2019-06-07T11:55:15.821Z,1002.83
2019-06-07T11:56:14.315Z,1002.78
2019-06-07T11:57:15.161Z,1002.75
2019-06-07T11:58:17.207Z,1002.71
2019-06-07T11:59:15.419Z,1002.64
2019-06-07T12:00:16.066Z,1002.69
2019-06-07T12:01:15.057Z,1002.64
2019-06-07T12:02:15.502Z,1002.58
2019-06-07T12:03:15.860Z,1002.45
2019-06-07T12:04:28.713Z,1002.46
2019-06-07T12:05:18.422Z,1002.41
2019-06-07T12:06:14.558Z,1002.42
2019-06-07T12:07:15.935Z,1002.45
2019-06-07T12:08:14.178Z,1002.44
2019-06-07T12:09:14.508Z,1002.53
2019-06-07T12:10:16.580Z,1002.52
2019-06-07T12:11:14.440Z,1002.42
2019-06-07T12:12:14.570Z,1002.37
2019-06-07T12:13:15.559Z,1002.36
2019-06-07T12:14:14.808Z,1002.22